sensor_id;sensor_type;location;lat;lon;timestamp;pressure;altitude;pressure_sealevel;temperature
53512;BMP280;39392;52.832;13.816;2024-02-23T00:00:46;98243.38;;;19.53
53512;BMP280;39392;52.832;13.816;2024-02-23T00:03:12;98237.97;;;19.53
53512;BMP280;39392;52.832;13.816;2024-02-23T00:05:38;98242.31;;;19.54
53512;BMP280;39392;52.832;13.816;2024-02-23T00:08:06;98239.34;;;19.55
53512;BMP280;39392;52.832;13.816;2024-02-23T00:10:33;98246.19;;;19.58
53512;BMP280;39392;52.832;13.816;2024-02-23T00:12:59;98249.75;;;19.58
53512;BMP280;39392;52.832;13.816;2024-02-23T00:15:27;98258.97;;;19.57
53512;BMP280;39392;52.832;13.816;2024-02-23T00:17:53;98251.63;;;19.58
53512;BMP280;39392;52.832;13.816;2024-02-23T00:20:20;98250.00;;;19.57
53512;BMP280;39392;52.832;13.816;2024-02-23T00:22:47;98240.78;;;19.58
53512;BMP280;39392;52.832;13.816;2024-02-23T00:25:13;98246.78;;;19.60
53512;BMP280;39392;52.832;13.816;2024-02-23T00:27:40;98237.81;;;19.59
53512;BMP280;39392;52.832;13.816;2024-02-23T00:30:08;98246.78;;;19.60
53512;BMP280;39392;52.832;13.816;2024-02-23T00:32:34;98248.78;;;19.64
53512;BMP280;39392;52.832;13.816;2024-02-23T00:35:01;98250.69;;;19.64
53512;BMP280;39392;52.832;13.816;2024-02-23T00:37:27;98252.38;;;19.65
53512;BMP280;39392;52.832;13.816;2024-02-23T00:39:54;98241.25;;;19.67
53512;BMP280;39392;52.832;13.816;2024-02-23T00:42:20;98234.16;;;19.65
53512;BMP280;39392;52.832;13.816;2024-02-23T00:44:47;98243.63;;;19.63
53512;BMP280;39392;52.832;13.816;2024-02-23T00:47:13;98231.44;;;19.65
53512;BMP280;39392;52.832;13.816;2024-02-23T00:49:40;98237.94;;;19.64
53512;BMP280;39392;52.832;13.816;2024-02-23T00:52:06;98234.38;;;19.64
53512;BMP280;39392;52.832;13.816;2024-02-23T00:54:33;98238.19;;;19.63
53512;BMP280;39392;52.832;13.816;2024-02-23T00:56:59;98238.19;;;19.63
53512;BMP280;39392;52.832;13.816;2024-02-23T00:59:26;98231.09;;;19.62
53512;BMP280;39392;52.832;13.816;2024-02-23T01:01:52;98231.66;;;19.64
53512;BMP280;39392;52.832;13.816;2024-02-23T01:04:19;98227.91;;;19.65
53512;BMP280;39392;52.832;13.816;2024-02-23T01:06:45;98240.44;;;19.66
53512;BMP280;39392;52.832;13.816;2024-02-23T01:09:12;98227.06;;;19.64
53512;BMP280;39392;52.832;13.816;2024-02-23T01:11:39;98230.28;;;19.61
53512;BMP280;39392;52.832;13.816;2024-02-23T01:14:06;98224.84;;;19.61
53512;BMP280;39392;52.832;13.816;2024-02-23T01:16:33;98228.94;;;19.64
53512;BMP280;39392;52.832;13.816;2024-02-23T01:18:59;98248.78;;;19.64
53512;BMP280;39392;52.832;13.816;2024-02-23T01:21:26;98247.97;;;19.64
53512;BMP280;39392;52.832;13.816;2024-02-23T01:23:52;98241.97;;;19.62
53512;BMP280;39392;52.832;13.816;2024-02-23T01:26:19;98257.19;;;19.63
53512;BMP280;39392;52.832;13.816;2024-02-23T01:28:45;98268.66;;;19.65
53512;BMP280;39392;52.832;13.816;2024-02-23T01:31:12;98254.84;;;19.67
53512;BMP280;39392;52.832;13.816;2024-02-23T01:33:39;98258.13;;;19.69
53512;BMP280;39392;52.832;13.816;2024-02-23T01:36:06;98260.00;;;19.68
53512;BMP280;39392;52.832;13.816;2024-02-23T01:38:33;98271.97;;;19.67
53512;BMP280;39392;52.832;13.816;2024-02-23T01:40:59;98279.28;;;19.67
53512;BMP280;39392;52.832;13.816;2024-02-23T01:43:26;98283.91;;;19.66
53512;BMP280;39392;52.832;13.816;2024-02-23T01:45:53;98295.59;;;19.67
53512;BMP280;39392;52.832;13.816;2024-02-23T01:48:20;98299.13;;;19.67
53512;BMP280;39392;52.832;13.816;2024-02-23T01:50:47;98301.59;;;19.69
53512;BMP280;39392;52.832;13.816;2024-02-23T01:53:13;98309.53;;;19.70
53512;BMP280;39392;52.832;13.816;2024-02-23T01:55:40;98303.75;;;19.67
53512;BMP280;39392;52.832;13.816;2024-02-23T01:58:07;98321.59;;;19.62
53512;BMP280;39392;52.832;13.816;2024-02-23T02:00:34;98328.91;;;19.62
53512;BMP280;39392;52.832;13.816;2024-02-23T02:03:01;98327.38;;;19.66
53512;BMP280;39392;52.832;13.816;2024-02-23T02:05:27;98337.44;;;19.65
53512;BMP280;39392;52.832;13.816;2024-02-23T02:07:55;98330.09;;;19.66
53512;BMP280;39392;52.832;13.816;2024-02-23T02:10:25;98354.31;;;19.68
53512;BMP280;39392;52.832;13.816;2024-02-23T02:12:53;98357.63;;;19.70
53512;BMP280;39392;52.832;13.816;2024-02-23T02:15:19;98367.41;;;19.71
53512;BMP280;39392;52.832;13.816;2024-02-23T02:17:48;98376.41;;;19.71
53512;BMP280;39392;52.832;13.816;2024-02-23T02:20:14;98376.41;;;19.71
53512;BMP280;39392;52.832;13.816;2024-02-23T02:22:45;98380.75;;;19.72
53512;BMP280;39392;52.832;13.816;2024-02-23T02:25:13;98386.19;;;19.72
53512;BMP280;39392;52.832;13.816;2024-02-23T02:27:40;98406.91;;;19.73
53512;BMP280;39392;52.832;13.816;2024-02-23T02:30:06;98425.91;;;19.73
53512;BMP280;39392;52.832;13.816;2024-02-23T02:32:33;98435.47;;;19.76
53512;BMP280;39392;52.832;13.816;2024-02-23T02:35:03;98437.38;;;19.75
53512;BMP280;39392;52.832;13.816;2024-02-23T02:37:29;98443.63;;;19.76
53512;BMP280;39392;52.832;13.816;2024-02-23T02:39:56;98442.78;;;19.75
53512;BMP280;39392;52.832;13.816;2024-02-23T02:42:22;98447.66;;;19.73
53512;BMP280;39392;52.832;13.816;2024-02-23T02:44:49;98463.09;;;19.73
53512;BMP280;39392;52.832;13.816;2024-02-23T02:47:15;98456.84;;;19.72
53512;BMP280;39392;52.832;13.816;2024-02-23T02:49:42;98465.63;;;19.74
53512;BMP280;39392;52.832;13.816;2024-02-23T02:52:08;98476.47;;;19.74
53512;BMP280;39392;52.832;13.816;2024-02-23T02:54:35;98485.47;;;19.75
53512;BMP280;39392;52.832;13.816;2024-02-23T02:57:01;98496.34;;;19.75
53512;BMP280;39392;52.832;13.816;2024-02-23T02:59:28;98514.28;;;19.76
53512;BMP280;39392;52.832;13.816;2024-02-23T03:01:55;98516.78;;;19.77
53512;BMP280;39392;52.832;13.816;2024-02-23T03:04:23;98516.78;;;19.77
53512;BMP280;39392;52.832;13.816;2024-02-23T03:06:50;98514.66;;;19.79
53512;BMP280;39392;52.832;13.816;2024-02-23T03:09:16;98529.88;;;19.80
53512;BMP280;39392;52.832;13.816;2024-02-23T03:11:42;98538.88;;;19.81
53512;BMP280;39392;52.832;13.816;2024-02-23T03:14:09;98529.06;;;19.80
53512;BMP280;39392;52.832;13.816;2024-02-23T03:16:36;98526.81;;;19.77
53512;BMP280;39392;52.832;13.816;2024-02-23T03:19:04;98545.84;;;19.77
53512;BMP280;39392;52.832;13.816;2024-02-23T03:21:30;98557.78;;;19.76
53512;BMP280;39392;52.832;13.816;2024-02-23T03:23:57;98543.13;;;19.77
53512;BMP280;39392;52.832;13.816;2024-02-23T03:26:23;98588.50;;;19.76
53512;BMP280;39392;52.832;13.816;2024-02-23T03:28:50;98582.84;;;19.78
53512;BMP280;39392;52.832;13.816;2024-02-23T03:31:16;98601.63;;;19.79
53512;BMP280;39392;52.832;13.816;2024-02-23T03:33:43;98598.66;;;19.81
53512;BMP280;39392;52.832;13.816;2024-02-23T03:36:10;98608.13;;;19.78
53512;BMP280;39392;52.832;13.816;2024-02-23T03:38:36;98619.81;;;19.79
53512;BMP280;39392;52.832;13.816;2024-02-23T03:41:03;98624.44;;;19.78
53512;BMP280;39392;52.832;13.816;2024-02-23T03:43:29;98635.53;;;19.77
53512;BMP280;39392;52.832;13.816;2024-02-23T03:45:59;98648.28;;;19.76
53512;BMP280;39392;52.832;13.816;2024-02-23T03:48:26;98634.50;;;19.78
53512;BMP280;39392;52.832;13.816;2024-02-23T03:50:52;98648.91;;;19.78
53512;BMP280;39392;52.832;13.816;2024-02-23T03:53:20;98662.50;;;19.78
53512;BMP280;39392;52.832;13.816;2024-02-23T03:55:47;98668.75;;;19.79
53512;BMP280;39392;52.832;13.816;2024-02-23T03:58:13;98666.84;;;19.79
53512;BMP280;39392;52.832;13.816;2024-02-23T04:00:40;98667.94;;;19.78
53512;BMP280;39392;52.832;13.816;2024-02-23T04:03:06;98666.03;;;19.79
53512;BMP280;39392;52.832;13.816;2024-02-23T04:05:33;98673.38;;;19.78
53512;BMP280;39392;52.832;13.816;2024-02-23T04:07:59;98676.09;;;19.78
53512;BMP280;39392;52.832;13.816;2024-02-23T04:10:26;98681.53;;;19.78
53512;BMP280;39392;52.832;13.816;2024-02-23T04:12:52;98691.78;;;19.76
53512;BMP280;39392;52.832;13.816;2024-02-23T04:15:19;98690.38;;;19.74
53512;BMP280;39392;52.832;13.816;2024-02-23T04:17:45;98704.78;;;19.74
53512;BMP280;39392;52.832;13.816;2024-02-23T04:20:12;98713.63;;;19.70
53512;BMP280;39392;52.832;13.816;2024-02-23T04:22:40;98705.47;;;19.70
53512;BMP280;39392;52.832;13.816;2024-02-23T04:25:06;98723.44;;;19.71
53512;BMP280;39392;52.832;13.816;2024-02-23T04:27:33;98718.44;;;19.68
53512;BMP280;39392;52.832;13.816;2024-02-23T04:29:59;98736.41;;;19.69
53512;BMP280;39392;52.832;13.816;2024-02-23T04:32:26;98736.66;;;19.67
53512;BMP280;39392;52.832;13.816;2024-02-23T04:34:52;98746.44;;;19.68
53512;BMP280;39392;52.832;13.816;2024-02-23T04:37:19;98749.16;;;19.68
53512;BMP280;39392;52.832;13.816;2024-02-23T04:39:45;98748.13;;;19.69
53512;BMP280;39392;52.832;13.816;2024-02-23T04:42:12;98757.94;;;19.70
53512;BMP280;39392;52.832;13.816;2024-02-23T04:44:40;98766.91;;;19.71
53512;BMP280;39392;52.832;13.816;2024-02-23T04:47:07;98759.34;;;19.73
53512;BMP280;39392;52.832;13.816;2024-02-23T04:49:33;98787.38;;;19.73
53512;BMP280;39392;52.832;13.816;2024-02-23T04:52:00;98793.03;;;19.72
53512;BMP280;39392;52.832;13.816;2024-02-23T04:54:26;98797.63;;;19.71
53512;BMP280;39392;52.832;13.816;2024-02-23T04:56:53;98813.94;;;19.71
53512;BMP280;39392;52.832;13.816;2024-02-23T04:59:19;98809.78;;;19.69
53512;BMP280;39392;52.832;13.816;2024-02-23T05:01:46;98817.13;;;19.68
53512;BMP280;39392;52.832;13.816;2024-02-23T05:04:13;98815.22;;;19.69
53512;BMP280;39392;52.832;13.816;2024-02-23T05:06:39;98830.25;;;19.71
53512;BMP280;39392;52.832;13.816;2024-02-23T05:09:06;98826.94;;;19.69
53512;BMP280;39392;52.832;13.816;2024-02-23T05:11:35;98828.59;;;19.70
53512;BMP280;39392;52.832;13.816;2024-02-23T05:14:02;98843.03;;;19.71
53512;BMP280;39392;52.832;13.816;2024-02-23T05:16:28;98850.09;;;19.72
53512;BMP280;39392;52.832;13.816;2024-02-23T05:18:55;98857.19;;;19.73
53512;BMP280;39392;52.832;13.816;2024-02-23T05:21:21;98870.19;;;19.71
53512;BMP280;39392;52.832;13.816;2024-02-23T05:23:48;98879.41;;;19.70
53512;BMP280;39392;52.832;13.816;2024-02-23T05:26:14;98902.81;;;19.71
53512;BMP280;39392;52.832;13.816;2024-02-23T05:28:41;98901.16;;;19.70
53512;BMP280;39392;52.832;13.816;2024-02-23T05:31:09;98893.00;;;19.70
53512;BMP280;39392;52.832;13.816;2024-02-23T05:33:35;98899.47;;;19.69
53512;BMP280;39392;52.832;13.816;2024-02-23T05:36:03;98902.44;;;19.67
53512;BMP280;39392;52.832;13.816;2024-02-23T05:38:29;98912.03;;;19.70
53512;BMP280;39392;52.832;13.816;2024-02-23T05:40:56;98927.50;;;19.69
53512;BMP280;39392;52.832;13.816;2024-02-23T05:43:23;98916.16;;;19.72
53512;BMP280;39392;52.832;13.816;2024-02-23T05:45:50;98930.81;;;19.71
53512;BMP280;39392;52.832;13.816;2024-02-23T05:48:16;98938.16;;;19.71
53512;BMP280;39392;52.832;13.816;2024-02-23T05:50:45;98954.22;;;19.72
53512;BMP280;39392;52.832;13.816;2024-02-23T05:53:11;98965.91;;;19.73
53512;BMP280;39392;52.832;13.816;2024-02-23T05:55:38;98991.25;;;19.73
53512;BMP280;39392;52.832;13.816;2024-02-23T05:58:04;98989.34;;;19.74
53512;BMP280;39392;52.832;13.816;2024-02-23T06:00:31;99008.56;;;19.72
53512;BMP280;39392;52.832;13.816;2024-02-23T06:02:58;99006.47;;;19.74
53512;BMP280;39392;52.832;13.816;2024-02-23T06:05:24;99016.28;;;19.75
53512;BMP280;39392;52.832;13.816;2024-02-23T06:07:54;99022.56;;;19.76
53512;BMP280;39392;52.832;13.816;2024-02-23T06:10:21;99032.84;;;19.74
53512;BMP280;39392;52.832;13.816;2024-02-23T06:12:47;99020.91;;;19.75
53512;BMP280;39392;52.832;13.816;2024-02-23T06:15:14;99029.06;;;19.75
53512;BMP280;39392;52.832;13.816;2024-02-23T06:17:40;99045.59;;;19.73
53512;BMP280;39392;52.832;13.816;2024-02-23T06:20:07;99060.69;;;19.69
53512;BMP280;39392;52.832;13.816;2024-02-23T06:22:34;99072.59;;;19.68
53512;BMP280;39392;52.832;13.816;2024-02-23T06:25:01;99079.09;;;19.67
53512;BMP280;39392;52.832;13.816;2024-02-23T06:27:28;99094.34;;;19.68
53512;BMP280;39392;52.832;13.816;2024-02-23T06:29:56;99096.03;;;19.69
53512;BMP280;39392;52.832;13.816;2024-02-23T06:32:22;99109.59;;;19.69
53512;BMP280;39392;52.832;13.816;2024-02-23T06:34:49;99122.13;;;19.70
53512;BMP280;39392;52.832;13.816;2024-02-23T06:37:16;99125.06;;;19.69
53512;BMP280;39392;52.832;13.816;2024-02-23T06:39:42;99140.78;;;19.67
53512;BMP280;39392;52.832;13.816;2024-02-23T06:42:10;99129.66;;;19.68
53512;BMP280;39392;52.832;13.816;2024-02-23T06:44:36;99156.66;;;19.70
53512;BMP280;39392;52.832;13.816;2024-02-23T06:47:03;99153.09;;;19.69
53512;BMP280;39392;52.832;13.816;2024-02-23T06:49:30;99152.25;;;19.69
53512;BMP280;39392;52.832;13.816;2024-02-23T06:51:56;99158.31;;;19.71
53512;BMP280;39392;52.832;13.816;2024-02-23T06:54:23;99177.09;;;19.72
53512;BMP280;39392;52.832;13.816;2024-02-23T06:56:49;99177.09;;;19.72
53512;BMP280;39392;52.832;13.816;2024-02-23T06:59:16;99179.22;;;19.70
53512;BMP280;39392;52.832;13.816;2024-02-23T07:01:49;99189.25;;;19.70
53512;BMP280;39392;52.832;13.816;2024-02-23T07:04:16;99198.84;;;19.72
53512;BMP280;39392;52.832;13.816;2024-02-23T07:06:42;99194.25;;;19.73
53512;BMP280;39392;52.832;13.816;2024-02-23T07:09:09;99195.09;;;19.73
53512;BMP280;39392;52.832;13.816;2024-02-23T07:11:37;99198.41;;;19.75
53512;BMP280;39392;52.832;13.816;2024-02-23T07:14:05;99212.84;;;19.76
53512;BMP280;39392;52.832;13.816;2024-02-23T07:16:31;99226.66;;;19.74
53512;BMP280;39392;52.832;13.816;2024-02-23T07:18:58;99212.00;;;19.75
53512;BMP280;39392;52.832;13.816;2024-02-23T07:21:25;99209.53;;;19.74
53512;BMP280;39392;52.832;13.816;2024-02-23T07:23:52;99220.38;;;19.74
53512;BMP280;39392;52.832;13.816;2024-02-23T07:26:18;99228.31;;;19.75
53512;BMP280;39392;52.832;13.816;2024-02-23T07:28:46;99248.19;;;19.76
53512;BMP280;39392;52.832;13.816;2024-02-23T07:31:13;99252.78;;;19.75
53512;BMP280;39392;52.832;13.816;2024-02-23T07:33:39;99248.19;;;19.76
53512;BMP280;39392;52.832;13.816;2024-02-23T07:36:06;99246.28;;;19.76
53512;BMP280;39392;52.832;13.816;2024-02-23T07:38:35;99239.81;;;19.77
53512;BMP280;39392;52.832;13.816;2024-02-23T07:41:01;99247.75;;;19.79
53512;BMP280;39392;52.832;13.816;2024-02-23T07:43:27;99264.06;;;19.79
53512;BMP280;39392;52.832;13.816;2024-02-23T07:45:55;99260.06;;;19.81
53512;BMP280;39392;52.832;13.816;2024-02-23T07:48:21;99257.31;;;19.88
53512;BMP280;39392;52.832;13.816;2024-02-23T07:50:48;99255.81;;;19.92
53512;BMP280;39392;52.832;13.816;2024-02-23T07:53:15;99262.06;;;19.99
53512;BMP280;39392;52.832;13.816;2024-02-23T07:55:41;99267.06;;;20.02
53512;BMP280;39392;52.832;13.816;2024-02-23T07:58:07;99269.75;;;20.09
53512;BMP280;39392;52.832;13.816;2024-02-23T08:00:34;99272.44;;;20.15
53512;BMP280;39392;52.832;13.816;2024-02-23T08:03:04;99277.88;;;20.15
53512;BMP280;39392;52.832;13.816;2024-02-23T08:05:31;99279.94;;;20.20
53512;BMP280;39392;52.832;13.816;2024-02-23T08:07:57;99291.41;;;20.22
53512;BMP280;39392;52.832;13.816;2024-02-23T08:10:24;99290.38;;;20.23
53512;BMP280;39392;52.832;13.816;2024-02-23T08:12:52;99289.91;;;20.26
53512;BMP280;39392;52.832;13.816;2024-02-23T08:15:18;99301.63;;;20.27
53512;BMP280;39392;52.832;13.816;2024-02-23T08:17:45;99308.31;;;20.31
53512;BMP280;39392;52.832;13.816;2024-02-23T08:20:11;99314.13;;;20.34
53512;BMP280;39392;52.832;13.816;2024-02-23T08:22:38;99303.66;;;20.38
53512;BMP280;39392;52.832;13.816;2024-02-23T08:25:04;99310.09;;;20.44
53512;BMP280;39392;52.832;13.816;2024-02-23T08:27:31;99327.47;;;20.49
53512;BMP280;39392;52.832;13.816;2024-02-23T08:29:57;99329.53;;;20.54
53512;BMP280;39392;52.832;13.816;2024-02-23T08:32:24;99321.78;;;20.57
53512;BMP280;39392;52.832;13.816;2024-02-23T08:34:50;99333.66;;;20.63
53512;BMP280;39392;52.832;13.816;2024-02-23T08:37:19;99329.44;;;20.67
53512;BMP280;39392;52.832;13.816;2024-02-23T08:39:45;99338.19;;;20.69
53512;BMP280;39392;52.832;13.816;2024-02-23T08:42:12;99343.22;;;20.72
53512;BMP280;39392;52.832;13.816;2024-02-23T08:44:38;99354.72;;;20.74
53512;BMP280;39392;52.832;13.816;2024-02-23T08:47:05;99356.16;;;20.77
53512;BMP280;39392;52.832;13.816;2024-02-23T08:49:32;99357.63;;;20.79
53512;BMP280;39392;52.832;13.816;2024-02-23T08:51:58;99365.78;;;20.79
53512;BMP280;39392;52.832;13.816;2024-02-23T08:54:25;99365.16;;;20.77
53512;BMP280;39392;52.832;13.816;2024-02-23T08:56:51;99364.94;;;20.79
53512;BMP280;39392;52.832;13.816;2024-02-23T08:59:18;99354.91;;;20.79
53512;BMP280;39392;52.832;13.816;2024-02-23T09:01:44;99355.28;;;20.83
53512;BMP280;39392;52.832;13.816;2024-02-23T09:04:13;99363.22;;;20.84
53512;BMP280;39392;52.832;13.816;2024-02-23T09:06:39;99366.56;;;20.86
53512;BMP280;39392;52.832;13.816;2024-02-23T09:09:06;99376.16;;;20.89
53512;BMP280;39392;52.832;13.816;2024-02-23T09:11:32;99387.28;;;20.87
53512;BMP280;39392;52.832;13.816;2024-02-23T09:13:59;99401.50;;;20.89
53512;BMP280;39392;52.832;13.816;2024-02-23T09:16:26;99396.94;;;20.90
53512;BMP280;39392;52.832;13.816;2024-02-23T09:18:52;99390.63;;;20.89
53512;BMP280;39392;52.832;13.816;2024-02-23T09:21:19;99401.06;;;20.93
53512;BMP280;39392;52.832;13.816;2024-02-23T09:23:45;99398.59;;;20.91
53512;BMP280;39392;52.832;13.816;2024-02-23T09:26:12;99407.59;;;20.92
53512;BMP280;39392;52.832;13.816;2024-02-23T09:28:38;99400.09;;;20.87
53512;BMP280;39392;52.832;13.816;2024-02-23T09:31:08;99413.53;;;20.82
53512;BMP280;39392;52.832;13.816;2024-02-23T09:33:34;99406.22;;;20.76
53512;BMP280;39392;52.832;13.816;2024-02-23T09:36:01;99416.94;;;20.71
53512;BMP280;39392;52.832;13.816;2024-02-23T09:38:27;99422.81;;;20.68
53512;BMP280;39392;52.832;13.816;2024-02-23T09:40:54;99423.47;;;20.63
53512;BMP280;39392;52.832;13.816;2024-02-23T09:43:21;99425.19;;;20.57
53512;BMP280;39392;52.832;13.816;2024-02-23T09:45:50;99425.63;;;20.54
53512;BMP280;39392;52.832;13.816;2024-02-23T09:48:18;99435.50;;;20.49
53512;BMP280;39392;52.832;13.816;2024-02-23T09:50:45;99429.63;;;20.45
53512;BMP280;39392;52.832;13.816;2024-02-23T09:53:13;99439.06;;;20.43
53512;BMP280;39392;52.832;13.816;2024-02-23T09:55:41;99435.72;;;20.40
53512;BMP280;39392;52.832;13.816;2024-02-23T09:58:08;99441.59;;;20.37
53512;BMP280;39392;52.832;13.816;2024-02-23T10:00:37;99452.72;;;20.36
53512;BMP280;39392;52.832;13.816;2024-02-23T10:03:04;99453.13;;;20.33
53512;BMP280;39392;52.832;13.816;2024-02-23T10:05:31;99466.94;;;20.31
53512;BMP280;39392;52.832;13.816;2024-02-23T10:08:04;99477.22;;;20.29
53512;BMP280;39392;52.832;13.816;2024-02-23T10:10:32;99486.44;;;20.28
53512;BMP280;39392;52.832;13.816;2024-02-23T10:12:59;99481.63;;;20.24
53512;BMP280;39392;52.832;13.816;2024-02-23T10:15:28;99480.41;;;20.20
53512;BMP280;39392;52.832;13.816;2024-02-23T10:17:55;99483.13;;;20.20
53512;BMP280;39392;52.832;13.816;2024-02-23T10:20:21;99480.00;;;20.16
53512;BMP280;39392;52.832;13.816;2024-02-23T10:22:48;99474.13;;;20.12
53512;BMP280;39392;52.832;13.816;2024-02-23T10:25:15;99468.06;;;20.17
53512;BMP280;39392;52.832;13.816;2024-02-23T10:27:42;99452.38;;;20.19
53512;BMP280;39392;52.832;13.816;2024-02-23T10:30:11;99470.13;;;20.22
53512;BMP280;39392;52.832;13.816;2024-02-23T10:32:39;99481.22;;;20.20
53512;BMP280;39392;52.832;13.816;2024-02-23T10:35:11;99481.25;;;20.13
53512;BMP280;39392;52.832;13.816;2024-02-23T10:37:41;99470.00;;;20.03
53512;BMP280;39392;52.832;13.816;2024-02-23T10:40:08;99475.25;;;19.98
53512;BMP280;39392;52.832;13.816;2024-02-23T10:42:38;99473.34;;;19.92
53512;BMP280;39392;52.832;13.816;2024-02-23T10:45:07;99463.75;;;19.83
53512;BMP280;39392;52.832;13.816;2024-02-23T10:47:34;99469.84;;;19.78
53512;BMP280;39392;52.832;13.816;2024-02-23T10:50:02;99463.75;;;19.76
53512;BMP280;39392;52.832;13.816;2024-02-23T10:52:29;99455.41;;;19.78
53512;BMP280;39392;52.832;13.816;2024-02-23T10:54:56;99467.94;;;19.79
53512;BMP280;39392;52.832;13.816;2024-02-23T10:57:23;99463.34;;;19.79
53512;BMP280;39392;52.832;13.816;2024-02-23T10:59:50;99477.56;;;19.75
53512;BMP280;39392;52.832;13.816;2024-02-23T11:02:18;99473.19;;;19.67
53512;BMP280;39392;52.832;13.816;2024-02-23T11:04:47;99477.16;;;19.64
53512;BMP280;39392;52.832;13.816;2024-02-23T11:07:18;99480.09;;;19.63
53512;BMP280;39392;52.832;13.816;2024-02-23T11:09:54;99473.38;;;19.59
53512;BMP280;39392;52.832;13.816;2024-02-23T11:12:25;99477.59;;;19.61
53512;BMP280;39392;52.832;13.816;2024-02-23T11:14:51;99484.06;;;19.67
53512;BMP280;39392;52.832;13.816;2024-02-23T11:17:22;99482.59;;;19.71
53512;BMP280;39392;52.832;13.816;2024-02-23T11:19:49;99476.53;;;19.76
53512;BMP280;39392;52.832;13.816;2024-02-23T11:22:26;99475.06;;;19.80
53512;BMP280;39392;52.832;13.816;2024-02-23T11:25:04;99482.38;;;19.86
53512;BMP280;39392;52.832;13.816;2024-02-23T11:27:38;99495.34;;;19.90
53512;BMP280;39392;52.832;13.816;2024-02-23T11:30:07;99486.53;;;19.95
53512;BMP280;39392;52.832;13.816;2024-02-23T11:32:42;99481.50;;;19.99
53512;BMP280;39392;52.832;13.816;2024-02-23T11:35:13;99489.44;;;20.00
53512;BMP280;39392;52.832;13.816;2024-02-23T11:37:53;99492.38;;;19.99
53512;BMP280;39392;52.832;13.816;2024-02-23T11:40:30;99498.66;;;19.99
53512;BMP280;39392;52.832;13.816;2024-02-23T11:42:57;99499.50;;;20.00
53512;BMP280;39392;52.832;13.816;2024-02-23T11:45:24;99496.34;;;20.03
53512;BMP280;39392;52.832;13.816;2024-02-23T11:47:51;99495.53;;;20.02
53512;BMP280;39392;52.832;13.816;2024-02-23T11:50:18;99508.66;;;20.05
53512;BMP280;39392;52.832;13.816;2024-02-23T11:52:47;99500.09;;;20.08
53512;BMP280;39392;52.832;13.816;2024-02-23T11:55:20;99495.06;;;20.12
53512;BMP280;39392;52.832;13.816;2024-02-23T11:57:49;99502.81;;;20.15
53512;BMP280;39392;52.832;13.816;2024-02-23T12:00:26;99506.13;;;20.17
53512;BMP280;39392;52.832;13.816;2024-02-23T12:02:53;99504.25;;;20.18
53512;BMP280;39392;52.832;13.816;2024-02-23T12:05:20;99509.69;;;20.18
53512;BMP280;39392;52.832;13.816;2024-02-23T12:07:46;99517.66;;;20.19
53512;BMP280;39392;52.832;13.816;2024-02-23T12:10:13;99519.50;;;20.19
53512;BMP280;39392;52.832;13.816;2024-02-23T12:12:53;99524.75;;;20.20
53512;BMP280;39392;52.832;13.816;2024-02-23T12:15:19;99523.94;;;20.20
53512;BMP280;39392;52.832;13.816;2024-02-23T12:17:47;99518.47;;;20.20
53512;BMP280;39392;52.832;13.816;2024-02-23T12:20:14;99523.69;;;20.21
53512;BMP280;39392;52.832;13.816;2024-02-23T12:22:41;99527.47;;;20.20
53512;BMP280;39392;52.832;13.816;2024-02-23T12:25:07;99525.81;;;20.19
53512;BMP280;39392;52.832;13.816;2024-02-23T12:27:34;99525.81;;;20.19
53512;BMP280;39392;52.832;13.816;2024-02-23T12:30:00;99525.81;;;20.19
53512;BMP280;39392;52.832;13.816;2024-02-23T12:32:27;99535.84;;;20.19
53512;BMP280;39392;52.832;13.816;2024-02-23T12:34:53;99531.44;;;20.18
53512;BMP280;39392;52.832;13.816;2024-02-23T12:37:20;99529.56;;;20.18
53512;BMP280;39392;52.832;13.816;2024-02-23T12:39:48;99528.31;;;20.14
53512;BMP280;39392;52.832;13.816;2024-02-23T12:42:15;99532.09;;;20.13
53512;BMP280;39392;52.832;13.816;2024-02-23T12:44:43;99535.22;;;20.10
53512;BMP280;39392;52.832;13.816;2024-02-23T12:47:09;99543.63;;;20.08
53512;BMP280;39392;52.832;13.816;2024-02-23T12:49:36;99532.72;;;20.08
53512;BMP280;39392;52.832;13.816;2024-02-23T12:52:02;99549.06;;;20.08
53512;BMP280;39392;52.832;13.816;2024-02-23T12:54:29;99541.94;;;20.07
53512;BMP280;39392;52.832;13.816;2024-02-23T12:56:55;99551.78;;;20.08
53512;BMP280;39392;52.832;13.816;2024-02-23T12:59:23;99546.34;;;20.08
53512;BMP280;39392;52.832;13.816;2024-02-23T13:01:49;99560.16;;;20.07
53512;BMP280;39392;52.832;13.816;2024-02-23T13:04:18;99555.75;;;20.06
53512;BMP280;39392;52.832;13.816;2024-02-23T13:06:45;99559.75;;;20.03
53512;BMP280;39392;52.832;13.816;2024-02-23T13:09:11;99557.66;;;19.99
53512;BMP280;39392;52.832;13.816;2024-02-23T13:11:39;99567.69;;;19.98
53512;BMP280;39392;52.832;13.816;2024-02-23T13:14:06;99558.06;;;19.96
53512;BMP280;39392;52.832;13.816;2024-02-23T13:16:32;99573.34;;;19.97
53512;BMP280;39392;52.832;13.816;2024-02-23T13:18:59;99568.94;;;19.96
53512;BMP280;39392;52.832;13.816;2024-02-23T13:21:25;99562.69;;;19.95
53512;BMP280;39392;52.832;13.816;2024-02-23T13:23:52;99581.72;;;19.95
53512;BMP280;39392;52.832;13.816;2024-02-23T13:26:18;99575.44;;;19.95
53512;BMP280;39392;52.832;13.816;2024-02-23T13:28:45;99570.63;;;19.97
53512;BMP280;39392;52.832;13.816;2024-02-23T13:31:12;99574.59;;;19.94
53512;BMP280;39392;52.832;13.816;2024-02-23T13:33:39;99559.53;;;19.92
53512;BMP280;39392;52.832;13.816;2024-02-23T13:36:06;99578.34;;;19.93
53512;BMP280;39392;52.832;13.816;2024-02-23T13:38:33;99572.31;;;19.91
53512;BMP280;39392;52.832;13.816;2024-02-23T13:41:05;99568.94;;;19.89
53512;BMP280;39392;52.832;13.816;2024-02-23T13:43:32;99576.25;;;19.88
53512;BMP280;39392;52.832;13.816;2024-02-23T13:46:00;99567.28;;;19.88
53512;BMP280;39392;52.832;13.816;2024-02-23T13:48:26;99576.06;;;19.90
53512;BMP280;39392;52.832;13.816;2024-02-23T13:50:53;99566.44;;;19.87
53512;BMP280;39392;52.832;13.816;2024-02-23T13:53:20;99571.66;;;19.89
53512;BMP280;39392;52.832;13.816;2024-02-23T13:55:47;99572.50;;;19.89